Time,TemperatureF,DewpointF,PressureIn,WindDirection,WindDirectionDegrees,WindSpeedMPH,WindSpeedGustMPH,Humidity,HourlyPrecipIn,Conditions,Clouds,dailyrainin,SoftwareType,DateUTC
2013-03-01 00:02:00,22.0,21.0,30.01,SE,125,4.0,-999.0,96,-99.99,,,-99.99,,2013-03-01 05:02:00,
2013-03-01 00:11:00,22.0,21.0,30.01,SE,125,4.0,-999.0,96,-99.99,,,-99.99,,2013-03-01 05:11:00,
2013-03-01 00:22:00,22.0,21.0,30.01,WNW,298,5.0,-999.0,96,-99.99,,,-99.99,,2013-03-01 05:22:00,
2013-03-01 00:33:00,22.0,21.0,30.01,East,93,4.0,-999.0,96,-99.99,,,-99.99,,2013-03-01 05:33:00,
2013-03-01 00:42:00,22.0,21.0,30.01,East,93,4.0,-999.0,96,-99.99,,,-99.99,,2013-03-01 05:42:00,
2013-03-01 00:52:00,28.0,25.0,30.01,NW,317,12.0,-999.0,89,-99.99,,,-99.99,,2013-03-01 05:52:00,
2013-03-01 01:02:00,28.0,25.0,30.00,NW,309,12.0,-999.0,90,-99.99,,,-99.99,,2013-03-01 06:02:00,
2013-03-01 01:12:00,28.0,25.0,30.00,NW,309,12.0,-999.0,90,-99.99,,,-99.99,,2013-03-01 06:12:00,
2013-03-01 01:22:00,28.0,25.0,30.00,WNW,300,11.0,-999.0,90,-99.99,,,-99.99,,2013-03-01 06:22:00,
2013-03-01 01:32:00,28.0,25.0,30.00,WNW,300,11.0,-999.0,90,-99.99,,,-99.99,,2013-03-01 06:32:00,
2013-03-01 01:42:00,28.0,25.0,30.00,WNW,300,11.0,-999.0,90,-99.99,,,-99.99,,2013-03-01 06:42:00,
2013-03-01 01:52:00,28.0,25.0,30.01,WNW,297,11.0,-999.0,89,-99.99,,,-99.99,,2013-03-01 06:52:00,
2013-03-01 02:02:00,28.0,25.0,30.01,NNW,339,13.0,-999.0,89,-99.99,,,-99.99,,2013-03-01 07:02:00,
2013-03-01 02:12:00,28.0,25.0,30.01,NNW,339,13.0,-999.0,89,-99.99,,,-99.99,,2013-03-01 07:12:00,
2013-03-01 02:22:00,28.0,25.0,30.01,NW,304,13.0,-999.0,89,-99.99,,,-99.99,,2013-03-01 07:22:00,
2013-03-01 02:32:00,28.0,25.0,30.01,NW,304,13.0,-999.0,89,-99.99,,,-99.99,,2013-03-01 07:32:00,
2013-03-01 02:42:00,28.0,25.0,30.01,NW,304,13.0,-999.0,89,-99.99,,,-99.99,,2013-03-01 07:42:00,
2013-03-01 02:52:00,28.0,25.0,30.00,NW,304,12.0,-999.0,90,-99.99,,,-99.99,,2013-03-01 07:52:00,
2013-03-01 03:02:00,28.0,25.0,30.00,NW,304,12.0,-999.0,90,-99.99,,,-99.99,,2013-03-01 08:02:00,
2013-03-01 03:12:00,28.0,25.0,30.00,NW,304,12.0,-999.0,90,-99.99,,,-99.99,,2013-03-01 08:12:00,
2013-03-01 03:22:00,28.0,25.0,29.99,NW,305,10.0,-999.0,89,-99.99,,,-99.99,,2013-03-01 08:22:00,
2013-03-01 03:32:00,28.0,25.0,30.00,NW,309,11.0,-999.0,88,-99.99,,,-99.99,,2013-03-01 08:32:00,
2013-03-01 03:43:00,28.0,25.0,30.00,NW,309,11.0,-999.0,88,-99.99,,,-99.99,,2013-03-01 08:43:00,
2013-03-01 03:53:00,28.0,25.0,29.99,NW,323,12.0,-999.0,88,-99.99,,,-99.99,,2013-03-01 08:53:00,
2013-03-01 04:02:00,28.0,25.0,29.99,NW,312,13.0,-999.0,88,-99.99,,,-99.99,,2013-03-01 09:02:00,
2013-03-01 04:12:00,28.0,25.0,29.99,NW,312,13.0,-999.0,88,-99.99,,,-99.99,,2013-03-01 09:12:00,
2013-03-01 04:22:00,28.0,25.0,29.99,NW,312,13.0,-999.0,88,-99.99,,,-99.99,,2013-03-01 09:22:00,
2013-03-01 04:32:00,28.0,25.0,29.99,West,277,10.0,-999.0,89,-99.99,,,-99.99,,2013-03-01 09:32:00,
2013-03-01 04:42:00,28.0,25.0,29.99,West,277,10.0,-999.0,89,-99.99,,,-99.99,,2013-03-01 09:42:00,
2013-03-01 04:53:00,28.0,25.0,29.99,NW,318,11.0,-999.0,88,-99.99,,,-99.99,,2013-03-01 09:53:00,
2013-03-01 05:02:00,28.0,25.0,29.99,West,259,10.0,-999.0,88,-99.99,,,-99.99,,2013-03-01 10:02:00,
2013-03-01 05:12:00,28.0,25.0,29.99,West,259,10.0,-999.0,88,-99.99,,,-99.99,,2013-03-01 10:12:00,
2013-03-01 05:22:00,28.0,25.0,30.00,WNW,298,9.0,-999.0,88,-99.99,,,-99.99,,2013-03-01 10:22:00,
2013-03-01 05:32:00,23.0,22.0,30.00,ESE,103,7.0,-999.0,96,-99.99,,,-99.99,,2013-03-01 10:32:00,
2013-03-01 05:52:00,23.0,22.0,30.01,WSW,252,2.0,-999.0,96,-99.99,,,-99.99,,2013-03-01 10:52:00,
2013-03-01 06:02:00,23.0,22.0,30.02,ESE,119,1.0,-999.0,96,-99.99,,,-99.99,,2013-03-01 11:02:00,
2013-03-01 06:11:00,23.0,22.0,30.02,ESE,119,1.0,-999.0,96,-99.99,,,-99.99,,2013-03-01 11:11:00,
2013-03-01 06:22:00,23.0,22.0,30.03,ESE,104,1.0,-999.0,96,-99.99,,,-99.99,,2013-03-01 11:22:00,
2013-03-01 06:32:00,23.0,22.0,30.03,ESE,104,1.0,-999.0,96,-99.99,,,-99.99,,2013-03-01 11:32:00,
2013-03-01 06:42:00,23.0,22.0,30.03,ESE,104,1.0,-999.0,96,-99.99,,,-99.99,,2013-03-01 11:42:00,
2013-03-01 06:52:00,23.0,22.0,30.03,SE,142,1.0,-999.0,96,-99.99,,,-99.99,,2013-03-01 11:52:00,
2013-03-01 07:02:00,23.0,22.0,30.03,SE,130,1.0,-999.0,96,-99.99,,,-99.99,,2013-03-01 12:02:00,
2013-03-01 07:11:00,23.0,22.0,30.03,SE,130,1.0,-999.0,96,-99.99,,,-99.99,,2013-03-01 12:11:00,
2013-03-01 07:22:00,23.0,22.0,30.03,WSW,251,1.0,-999.0,96,-99.99,,,-99.99,,2013-03-01 12:22:00,
2013-03-01 07:32:00,23.0,22.0,30.03,South,184,1.0,-999.0,96,-99.99,,,-99.99,,2013-03-01 12:32:00,
2013-03-01 07:42:00,23.0,22.0,30.03,South,184,1.0,-999.0,96,-99.99,,,-99.99,,2013-03-01 12:42:00,
2013-03-01 07:52:00,23.0,22.0,30.03,East,88,1.0,-999.0,96,-99.99,,,-99.99,,2013-03-01 12:52:00,
2013-03-01 08:01:00,23.0,22.0,30.03,West,273,2.0,-999.0,96,-99.99,,,-99.99,,2013-03-01 13:01:00,
2013-03-01 08:11:00,23.0,22.0,30.03,West,273,2.0,-999.0,96,-99.99,,,-99.99,,2013-03-01 13:11:00,
2013-03-01 08:22:00,29.0,26.0,30.04,NW,312,8.0,-999.0,87,-99.99,,,-99.99,,2013-03-01 13:22:00,
2013-03-01 08:32:00,29.0,26.0,30.03,WNW,288,10.0,-999.0,87,-99.99,,,-99.99,,2013-03-01 13:32:00,
2013-03-01 08:42:00,29.0,26.0,30.03,WNW,288,10.0,-999.0,87,-99.99,,,-99.99,,2013-03-01 13:42:00,
2013-03-01 08:52:00,29.0,26.0,30.04,WNW,290,10.0,-999.0,87,-99.99,,,-99.99,,2013-03-01 13:52:00,
2013-03-01 09:02:00,29.0,25.0,30.04,WNW,287,11.0,-999.0,85,-99.99,,,-99.99,,2013-03-01 14:02:00,
2013-03-01 09:11:00,29.0,25.0,30.04,WNW,287,11.0,-999.0,85,-99.99,,,-99.99,,2013-03-01 14:11:00,
2013-03-01 09:22:00,30.0,26.0,30.05,NW,322,11.0,-999.0,85,-99.99,,,-99.99,,2013-03-01 14:22:00,
2013-03-01 09:32:00,29.0,26.0,30.05,WNW,300,11.0,-999.0,87,-99.99,,,-99.99,,2013-03-01 14:32:00,
2013-03-01 09:42:00,29.0,26.0,30.05,WNW,300,11.0,-999.0,87,-99.99,,,-99.99,,2013-03-01 14:42:00,
2013-03-01 09:52:00,29.0,25.0,30.05,NNW,331,11.0,-999.0,86,-99.99,,,-99.99,,2013-03-01 14:52:00,
2013-03-01 10:02:00,30.0,26.0,30.05,WNW,289,7.0,-999.0,84,-99.99,,,-99.99,,2013-03-01 15:02:00,
2013-03-01 10:11:00,30.0,25.0,30.05,NW,305,10.0,-999.0,82,-99.99,,,-99.99,,2013-03-01 15:11:00,
2013-03-01 10:21:00,30.0,25.0,30.05,NW,305,10.0,-999.0,82,-99.99,,,-99.99,,2013-03-01 15:21:00,
2013-03-01 10:32:00,31.0,26.0,30.04,WNW,298,11.0,-999.0,80,-99.99,,,-99.99,,2013-03-01 15:32:00,
2013-03-01 10:42:00,31.0,26.0,30.04,WNW,298,11.0,-999.0,80,-99.99,,,-99.99,,2013-03-01 15:42:00,
2013-03-01 10:52:00,32.0,26.0,30.05,WNW,289,8.0,-999.0,79,-99.99,,,-99.99,,2013-03-01 15:52:00,
2013-03-01 11:01:00,32.0,26.0,30.05,WNW,298,10.0,-999.0,79,-99.99,,,-99.99,,2013-03-01 16:01:00,
2013-03-01 11:11:00,32.0,26.0,30.05,WNW,298,10.0,-999.0,79,-99.99,,,-99.99,,2013-03-01 16:11:00,
2013-03-01 11:21:00,31.0,26.0,30.05,WNW,303,11.0,-999.0,80,-99.99,,,-99.99,,2013-03-01 16:21:00,
2013-03-01 11:32:00,31.0,26.0,30.05,WNW,288,8.0,-999.0,81,-99.99,,,-99.99,,2013-03-01 16:32:00,
2013-03-01 11:42:00,31.0,26.0,30.05,WNW,288,8.0,-999.0,81,-99.99,,,-99.99,,2013-03-01 16:42:00,
2013-03-01 11:51:00,31.0,26.0,30.05,NW,312,9.0,-999.0,83,-99.99,,,-99.99,,2013-03-01 16:51:00,
2013-03-01 12:01:00,31.0,26.0,30.06,WNW,299,9.0,-999.0,83,-99.99,,,-99.99,,2013-03-01 17:01:00,
2013-03-01 12:11:00,31.0,26.0,30.06,WNW,299,9.0,-999.0,83,-99.99,,,-99.99,,2013-03-01 17:11:00,
2013-03-01 12:21:00,30.0,26.0,30.06,WNW,300,11.0,-999.0,84,-99.99,,,-99.99,,2013-03-01 17:21:00,
2013-03-01 12:32:00,31.0,26.0,30.06,WNW,296,10.0,-999.0,82,-99.99,,,-99.99,,2013-03-01 17:32:00,
2013-03-01 12:42:00,31.0,26.0,30.06,WNW,296,10.0,-999.0,82,-99.99,,,-99.99,,2013-03-01 17:42:00,
2013-03-01 12:52:00,31.0,26.0,30.06,WNW,282,10.0,-999.0,81,-99.99,,,-99.99,,2013-03-01 17:52:00,
2013-03-01 13:02:00,31.0,26.0,30.05,NW,320,10.0,-999.0,82,-99.99,,,-99.99,,2013-03-01 18:02:00,
2013-03-01 13:12:00,31.0,26.0,30.05,NW,320,10.0,-999.0,82,-99.99,,,-99.99,,2013-03-01 18:12:00,
2013-03-01 13:22:00,31.0,26.0,30.05,NW,323,9.0,-999.0,82,-99.99,,,-99.99,,2013-03-01 18:22:00,
2013-03-01 13:32:00,31.0,26.0,30.04,NNW,338,9.0,-999.0,83,-99.99,,,-99.99,,2013-03-01 18:32:00,
2013-03-01 13:42:00,31.0,26.0,30.04,NNW,338,9.0,-999.0,83,-99.99,,,-99.99,,2013-03-01 18:42:00,
2013-03-01 13:52:00,31.0,26.0,30.04,NNW,348,10.0,-999.0,82,-99.99,,,-99.99,,2013-03-01 18:52:00,
2013-03-01 14:02:00,31.0,26.0,30.04,NE,51,7.0,-999.0,82,-99.99,,,-99.99,,2013-03-01 19:02:00,
2013-03-01 14:11:00,31.0,26.0,30.04,NE,51,7.0,-999.0,82,-99.99,,,-99.99,,2013-03-01 19:11:00,
2013-03-01 14:21:00,31.0,26.0,30.03,NNW,327,6.0,-999.0,82,-99.99,,,-99.99,,2013-03-01 19:21:00,
2013-03-01 14:32:00,31.0,26.0,30.03,NW,325,9.0,-999.0,80,-99.99,,,-99.99,,2013-03-01 19:32:00,
2013-03-01 14:42:00,31.0,26.0,30.03,NW,325,9.0,-999.0,80,-99.99,,,-99.99,,2013-03-01 19:42:00,
2013-03-01 14:51:00,32.0,27.0,30.03,WNW,298,7.0,-999.0,80,-99.99,,,-99.99,,2013-03-01 19:51:00,
2013-03-01 15:01:00,32.0,26.0,30.03,North,355,7.0,-999.0,78,-99.99,,,-99.99,,2013-03-01 20:01:00,
2013-03-01 15:11:00,32.0,26.0,30.03,North,355,7.0,-999.0,78,-99.99,,,-99.99,,2013-03-01 20:11:00,
2013-03-01 15:21:00,34.0,27.0,30.02,NNW,331,10.0,-999.0,75,-99.99,,,-99.99,,2013-03-01 20:21:00,
2013-03-01 15:32:00,34.0,26.0,30.03,NW,326,6.0,-999.0,73,-99.99,,,-99.99,,2013-03-01 20:32:00,
2013-03-01 15:42:00,34.0,26.0,30.03,NW,326,6.0,-999.0,73,-99.99,,,-99.99,,2013-03-01 20:42:00,
2013-03-01 15:52:00,33.0,26.0,30.02,NW,325,8.0,-999.0,74,-99.99,,,-99.99,,2013-03-01 20:52:00,
2013-03-01 16:02:00,33.0,24.0,30.03,NNW,328,13.0,-999.0,70,-99.99,,,-99.99,,2013-03-01 21:02:00,
2013-03-01 16:11:00,33.0,24.0,30.02,NE,47,9.0,-999.0,70,-99.99,,,-99.99,,2013-03-01 21:11:00,
2013-03-01 16:21:00,33.0,24.0,30.02,NE,47,9.0,-999.0,70,-99.99,,,-99.99,,2013-03-01 21:21:00,
2013-03-01 16:32:00,33.0,24.0,30.02,NNW,327,10.0,-999.0,70,-99.99,,,-99.99,,2013-03-01 21:32:00,
2013-03-01 16:42:00,33.0,24.0,30.02,NNW,327,10.0,-999.0,70,-99.99,,,-99.99,,2013-03-01 21:42:00,
2013-03-01 16:52:00,34.0,25.0,30.02,NW,313,10.0,-999.0,69,-99.99,,,-99.99,,2013-03-01 21:52:00,
2013-03-01 17:01:00,34.0,26.0,30.02,NNE,22,9.0,-999.0,71,-99.99,,,-99.99,,2013-03-01 22:01:00,
2013-03-01 17:11:00,34.0,25.0,30.02,NW,313,7.0,-999.0,70,-99.99,,,-99.99,,2013-03-01 22:11:00,
2013-03-01 17:22:00,34.0,25.0,30.02,NW,313,7.0,-999.0,70,-99.99,,,-99.99,,2013-03-01 22:22:00,
2013-03-01 17:32:00,34.0,25.0,30.03,NW,318,9.0,-999.0,70,-99.99,,,-99.99,,2013-03-01 22:32:00,
2013-03-01 17:42:00,34.0,25.0,30.03,NW,318,9.0,-999.0,70,-99.99,,,-99.99,,2013-03-01 22:42:00,
2013-03-01 17:51:00,33.0,25.0,30.03,WNW,299,9.0,-999.0,73,-99.99,,,-99.99,,2013-03-01 22:51:00,
2013-03-01 18:01:00,33.0,25.0,30.03,WNW,289,8.0,-999.0,73,-99.99,,,-99.99,,2013-03-01 23:01:00,
2013-03-01 18:11:00,33.0,25.0,30.03,WNW,289,8.0,-999.0,73,-99.99,,,-99.99,,2013-03-01 23:11:00,
2013-03-01 18:21:00,32.0,25.0,30.04,West,267,9.0,-999.0,75,-99.99,,,-99.99,,2013-03-01 23:21:00,
2013-03-01 18:32:00,32.0,25.0,30.05,NW,315,10.0,-999.0,76,-99.99,,,-99.99,,2013-03-01 23:32:00,
2013-03-01 18:41:00,32.0,25.0,30.05,NW,315,10.0,-999.0,76,-99.99,,,-99.99,,2013-03-01 23:41:00,
2013-03-01 18:52:00,31.0,25.0,30.06,ESE,115,4.0,-999.0,79,-99.99,,,-99.99,,2013-03-01 23:52:00,
2013-03-01 19:02:00,31.0,26.0,30.06,NNE,21,7.0,-999.0,80,-99.99,,,-99.99,,2013-03-02 00:02:00,
2013-03-01 19:12:00,31.0,26.0,30.06,NNE,21,7.0,-999.0,80,-99.99,,,-99.99,,2013-03-02 00:12:00,
2013-03-01 19:22:00,31.0,26.0,30.06,North,5,8.0,-999.0,80,-99.99,,,-99.99,,2013-03-02 00:22:00,
2013-03-01 19:32:00,30.0,25.0,30.06,WNW,284,9.0,-999.0,80,-99.99,,,-99.99,,2013-03-02 00:32:00,
2013-03-01 19:42:00,30.0,25.0,30.06,WNW,284,9.0,-999.0,80,-99.99,,,-99.99,,2013-03-02 00:42:00,
2013-03-01 19:52:00,30.0,25.0,30.06,North,5,7.0,-999.0,80,-99.99,,,-99.99,,2013-03-02 00:52:00,
2013-03-01 20:01:00,30.0,25.0,30.06,North,10,5.0,-999.0,80,-99.99,,,-99.99,,2013-03-02 01:01:00,
2013-03-01 20:11:00,30.0,25.0,30.06,North,10,5.0,-999.0,80,-99.99,,,-99.99,,2013-03-02 01:11:00,
2013-03-01 20:21:00,30.0,25.0,30.06,NE,44,6.0,-999.0,80,-99.99,,,-99.99,,2013-03-02 01:21:00,
2013-03-01 20:32:00,30.0,25.0,30.06,NW,317,6.0,-999.0,80,-99.99,,,-99.99,,2013-03-02 01:32:00,
2013-03-01 20:41:00,30.0,25.0,30.06,NW,317,6.0,-999.0,80,-99.99,,,-99.99,,2013-03-02 01:41:00,
2013-03-01 20:51:00,30.0,25.0,30.06,West,281,8.0,-999.0,80,-99.99,,,-99.99,,2013-03-02 01:51:00,
2013-03-01 21:01:00,30.0,25.0,30.07,North,355,8.0,-999.0,81,-99.99,,,-99.99,,2013-03-02 02:01:00,
2013-03-01 21:11:00,30.0,25.0,30.07,North,355,8.0,-999.0,81,-99.99,,,-99.99,,2013-03-02 02:11:00,
2013-03-01 21:22:00,30.0,25.0,30.07,WNW,289,6.0,-999.0,81,-99.99,,,-99.99,,2013-03-02 02:22:00,
2013-03-01 21:32:00,30.0,25.0,30.06,NW,317,8.0,-999.0,81,-99.99,,,-99.99,,2013-03-02 02:32:00,
2013-03-01 21:42:00,30.0,25.0,30.06,NW,317,8.0,-999.0,81,-99.99,,,-99.99,,2013-03-02 02:42:00,
2013-03-01 21:52:00,30.0,25.0,30.06,NW,321,7.0,-999.0,80,-99.99,,,-99.99,,2013-03-02 02:52:00,
2013-03-01 22:02:00,30.0,25.0,30.07,North,5,8.0,-999.0,80,-99.99,,,-99.99,,2013-03-02 03:02:00,
2013-03-01 22:11:00,30.0,25.0,30.07,North,5,8.0,-999.0,80,-99.99,,,-99.99,,2013-03-02 03:11:00,
2013-03-01 22:22:00,30.0,25.0,30.07,NNW,327,3.0,-999.0,80,-99.99,,,-99.99,,2013-03-02 03:22:00,
2013-03-01 22:32:00,30.0,25.0,30.07,NW,314,8.0,-999.0,80,-99.99,,,-99.99,,2013-03-02 03:32:00,
2013-03-01 22:42:00,30.0,25.0,30.07,NW,314,8.0,-999.0,80,-99.99,,,-99.99,,2013-03-02 03:42:00,
2013-03-01 22:52:00,30.0,25.0,30.07,NW,313,6.0,-999.0,81,-99.99,,,-99.99,,2013-03-02 03:52:00,
2013-03-01 23:02:00,30.0,25.0,30.07,NW,313,6.0,-999.0,81,-99.99,,,-99.99,,2013-03-02 04:02:00,
2013-03-01 23:11:00,30.0,25.0,30.07,NW,313,6.0,-999.0,81,-99.99,,,-99.99,,2013-03-02 04:11:00,
2013-03-01 23:22:00,29.0,24.0,30.06,NNW,343,8.0,-999.0,80,-99.99,,,-99.99,,2013-03-02 04:22:00,
2013-03-01 23:32:00,29.0,24.0,30.06,NW,319,7.0,-999.0,80,-99.99,,,-99.99,,2013-03-02 04:32:00,
2013-03-01 23:42:00,29.0,24.0,30.06,NW,319,7.0,-999.0,80,-99.99,,,-99.99,,2013-03-02 04:42:00,
2013-03-01 23:52:00,29.0,24.0,30.06,NNW,341,6.0,-999.0,81,-99.99,,,-99.99,,2013-03-02 04:52:00,